createdAt,value
2018-08-09T00:03:39.551Z,5.45
2018-08-09T00:08:32.527Z,5.25
2018-08-09T00:13:25.596Z,5.15
2018-08-09T00:18:18.666Z,4.60
2018-08-09T00:23:11.953Z,5.10
2018-08-09T00:28:04.982Z,4.78
2018-08-09T00:32:57.899Z,5.05
2018-08-09T00:37:50.925Z,4.62
2018-08-09T00:42:44.447Z,4.67
2018-08-09T00:47:37.496Z,4.47
2018-08-09T00:52:30.467Z,4.28
2018-08-09T00:57:23.434Z,4.10
2018-08-09T01:02:16.513Z,3.87
2018-08-09T01:07:09.561Z,3.80
2018-08-09T01:12:02.921Z,4.28
2018-08-09T01:16:55.967Z,3.77
2018-08-09T01:21:48.976Z,3.90
2018-08-09T01:26:42.277Z,3.50
2018-08-09T01:31:36.397Z,3.45
2018-08-09T01:36:29.557Z,3.40
2018-08-09T01:41:23.262Z,3.58
2018-08-09T01:46:16.230Z,3.58
2018-08-09T01:51:09.722Z,3.67
2018-08-09T01:56:02.735Z,3.45
2018-08-09T02:00:55.713Z,3.60
2018-08-09T02:05:49.124Z,3.70
2018-08-09T02:10:42.272Z,3.50
2018-08-09T02:15:35.336Z,3.40
2018-08-09T02:20:28.318Z,4.10
2018-08-09T02:25:21.412Z,3.62
2018-08-09T02:30:14.417Z,3.85
2018-08-09T02:35:07.451Z,4.03
2018-08-09T02:40:00.501Z,3.40
2018-08-09T02:44:53.863Z,5.80
2018-08-09T02:49:46.866Z,3.60
2018-08-09T02:54:40.919Z,3.92
2018-08-09T02:59:33.845Z,4.00
2018-08-09T03:04:27.206Z,4.15
2018-08-09T03:09:21.137Z,3.30
2018-08-09T03:14:14.073Z,3.70
2018-08-09T03:19:07.255Z,3.30
2018-08-09T03:24:00.316Z,3.10
2018-08-09T03:29:56.815Z,3.75
2018-08-09T03:34:49.878Z,3.42
2018-08-09T03:39:42.796Z,3.02
2018-08-09T03:44:35.793Z,3.33
2018-08-09T03:49:28.830Z,3.05
2018-08-09T03:54:21.835Z,3.27
2018-08-09T03:59:15.624Z,3.17
2018-08-09T04:04:08.742Z,2.80
2018-08-09T04:09:01.814Z,2.90
2018-08-09T04:13:54.856Z,3.17
2018-08-09T04:18:48.312Z,2.92
2018-08-09T04:23:41.282Z,2.80
2018-08-09T04:28:34.302Z,3.30
2018-08-09T04:33:27.314Z,3.05
2018-08-09T04:38:20.425Z,3.40
2018-08-09T04:43:13.572Z,2.98
2018-08-09T04:48:06.942Z,3.00
2018-08-09T04:52:59.964Z,2.80
2018-08-09T04:57:53.093Z,3.10
2018-08-09T05:02:46.441Z,3.17
2018-08-09T05:07:40.377Z,2.70
2018-08-09T05:12:33.329Z,2.90
2018-08-09T05:17:26.575Z,2.95
2018-08-09T05:22:19.629Z,2.70
2018-08-09T05:27:13.258Z,2.80
2018-08-09T05:32:06.627Z,3.10
2018-08-09T05:36:59.792Z,4.72
2018-08-09T05:41:52.751Z,2.77
2018-08-09T05:46:46.040Z,3.55
2018-08-09T05:51:39.051Z,2.58
2018-08-09T05:56:32.142Z,3.02
2018-08-09T06:01:25.095Z,2.92
2018-08-09T06:06:18.557Z,2.92
2018-08-09T06:11:11.730Z,2.98
2018-08-09T06:16:05.239Z,3.10
2018-08-09T06:20:58.259Z,2.75
2018-08-09T06:25:51.312Z,3.30
2018-08-09T06:30:44.318Z,3.37
2018-08-09T06:35:37.480Z,2.62
2018-08-09T06:40:30.532Z,2.90
2018-08-09T06:45:23.623Z,2.40
2018-08-09T06:50:16.704Z,2.60
2018-08-09T06:55:10.246Z,2.77
2018-08-09T07:00:03.750Z,2.60
2018-08-09T07:04:57.039Z,2.80
2018-08-09T07:09:50.069Z,2.60
2018-08-09T07:14:43.304Z,2.80
2018-08-09T07:19:36.356Z,2.92
2018-08-09T07:24:29.515Z,2.60
2018-08-09T07:29:22.478Z,2.85
2018-08-09T07:34:15.839Z,2.40
2018-08-09T07:39:10.051Z,2.35
2018-08-09T07:44:09.934Z,2.65
2018-08-09T07:49:03.249Z,2.37
2018-08-09T07:53:56.321Z,2.52
2018-08-09T07:58:49.917Z,2.50
2018-08-09T08:03:46.944Z,2.37
2018-08-09T08:08:40.122Z,2.67
2018-08-09T08:13:34.100Z,2.65
2018-08-09T08:18:27.282Z,2.80
2018-08-09T08:23:20.435Z,2.15
2018-08-09T08:28:13.487Z,2.33
2018-08-09T08:33:07.019Z,2.25
2018-08-09T08:38:00.890Z,2.50
2018-08-09T08:42:53.948Z,3.12
2018-08-09T08:47:46.928Z,3.40
2018-08-09T08:52:40.210Z,2.70
2018-08-09T08:57:35.835Z,2.37
2018-08-09T09:02:29.334Z,2.60
2018-08-09T09:07:22.360Z,2.08
2018-08-09T09:12:21.538Z,2.72
2018-08-09T09:17:14.708Z,2.10
2018-08-09T09:22:07.864Z,2.47
2018-08-09T09:27:01.040Z,2.40
2018-08-09T09:31:54.161Z,2.15
2018-08-09T09:36:47.829Z,2.00
2018-08-09T09:41:41.335Z,2.00
2018-08-09T09:46:34.380Z,2.02
2018-08-09T09:51:27.599Z,2.50
2018-08-09T09:56:20.633Z,2.10
2018-08-09T10:01:19.347Z,2.22
2018-08-09T10:06:12.718Z,1.98
2018-08-09T10:11:06.180Z,2.30
2018-08-09T10:15:59.079Z,2.10
2018-08-09T10:20:52.084Z,2.10
2018-08-09T10:25:45.127Z,1.98
2018-08-09T10:30:38.187Z,2.30
2018-08-09T10:35:31.295Z,2.10
2018-08-09T10:40:24.591Z,2.10
2018-08-09T10:45:17.679Z,2.45
2018-08-09T10:50:11.013Z,2.30
2018-08-09T10:55:04.140Z,2.10
2018-08-09T10:59:57.127Z,2.50
2018-08-09T11:04:50.141Z,2.30
2018-08-09T11:09:43.307Z,2.40
2018-08-09T11:14:36.294Z,2.40
2018-08-09T11:19:29.405Z,3.05
2018-08-09T11:24:22.383Z,2.37
2018-08-09T11:29:15.695Z,3.00
2018-08-09T11:34:08.769Z,2.10
2018-08-09T11:39:02.265Z,2.47
2018-08-09T11:43:55.122Z,2.60
2018-08-09T11:48:48.259Z,2.60
2018-08-09T11:53:41.245Z,2.02
2018-08-09T11:58:34.234Z,2.87
2018-08-09T12:03:27.745Z,2.30
2018-08-09T12:08:20.884Z,2.33
2018-08-09T12:13:13.946Z,2.75
2018-08-09T12:18:06.917Z,2.80
2018-08-09T12:22:59.917Z,2.37
2018-08-09T12:27:52.917Z,2.20
2018-08-09T12:32:46.436Z,2.10
2018-08-09T12:37:40.254Z,2.27
2018-08-09T12:42:33.268Z,2.58
2018-08-09T12:47:26.387Z,2.27
2018-08-09T12:52:19.461Z,2.33
2018-08-09T12:57:12.417Z,2.27
2018-08-09T13:02:05.642Z,2.60
2018-08-09T13:06:58.842Z,2.30
2018-08-09T13:11:52.344Z,2.60
2018-08-09T13:16:45.531Z,2.67
2018-08-09T13:21:38.510Z,2.30
2018-08-09T13:26:31.622Z,2.40
2018-08-09T13:31:24.689Z,2.60
2018-08-09T13:36:18.075Z,2.77
2018-08-09T13:41:11.034Z,2.47
2018-08-09T13:46:04.529Z,2.47
2018-08-09T13:50:57.494Z,2.42
2018-08-09T13:55:51.068Z,2.30
2018-08-09T14:00:44.062Z,2.30
2018-08-09T14:05:37.158Z,2.00
2018-08-09T14:10:30.230Z,2.50
2018-08-09T14:15:23.496Z,2.50
2018-08-09T14:20:17.574Z,2.15
2018-08-09T14:25:10.809Z,3.00
2018-08-09T14:30:04.589Z,2.22
2018-08-09T14:34:57.677Z,2.42
2018-08-09T14:39:50.620Z,2.25
2018-08-09T14:44:43.655Z,2.10
2018-08-09T14:49:36.710Z,2.85
2018-08-09T14:54:29.709Z,2.30
2018-08-09T14:59:22.701Z,2.52
2018-08-09T15:04:15.777Z,2.20
2018-08-09T15:09:10.432Z,2.40
2018-08-09T15:14:04.397Z,2.12
2018-08-09T15:18:57.376Z,2.85
2018-08-09T15:23:50.372Z,2.30
2018-08-09T15:28:43.451Z,2.50
2018-08-09T15:33:37.381Z,2.30
2018-08-09T15:38:30.372Z,2.25
2018-08-09T15:43:23.937Z,2.00
2018-08-09T15:48:17.157Z,2.58
2018-08-09T15:53:10.909Z,4.00
2018-08-09T15:58:04.848Z,2.15
2018-08-09T16:02:57.978Z,2.30
2018-08-09T16:07:51.116Z,2.75
2018-08-09T16:12:44.627Z,3.40
2018-08-09T16:17:39.678Z,2.92
2018-08-09T16:22:32.969Z,3.05
2018-08-09T16:27:26.179Z,2.85
2018-08-09T16:32:19.609Z,2.65
2018-08-09T16:37:12.611Z,2.52
2018-08-09T16:42:05.914Z,2.67
2018-08-09T16:46:59.000Z,3.10
2018-08-09T16:51:52.069Z,2.90
2018-08-09T16:56:45.123Z,2.92
2018-08-09T17:01:38.236Z,3.58
2018-08-09T17:06:31.287Z,3.00
2018-08-09T17:11:24.881Z,3.80
2018-08-09T17:16:18.083Z,3.30
2018-08-09T17:21:11.277Z,4.15
2018-08-09T17:26:04.468Z,5.67
2018-08-09T17:30:57.804Z,3.77
2018-08-09T17:35:50.892Z,3.45
2018-08-09T17:40:44.230Z,3.67
2018-08-09T17:45:37.314Z,3.27
2018-08-09T17:50:30.851Z,3.90
2018-08-09T17:55:23.957Z,3.60
2018-08-09T18:00:21.787Z,3.55
2018-08-09T18:05:15.146Z,3.50
2018-08-09T18:10:21.714Z,3.27
2018-08-09T18:15:15.094Z,3.87
2018-08-09T18:20:10.283Z,3.40
2018-08-09T18:25:03.702Z,3.62
2018-08-09T18:29:56.740Z,3.20
2018-08-09T18:34:49.890Z,3.58
2018-08-09T18:39:43.010Z,3.30
2018-08-09T18:44:36.163Z,3.02
2018-08-09T18:49:29.373Z,3.22
2018-08-09T18:54:22.599Z,2.98
2018-08-09T18:59:15.885Z,3.25
2018-08-09T19:04:09.148Z,3.52
2018-08-09T19:09:02.292Z,2.83
2018-08-09T19:13:55.454Z,3.00
2018-08-09T19:18:49.108Z,3.35
2018-08-09T19:23:43.316Z,3.52
2018-08-09T19:29:11.263Z,2.98
2018-08-09T19:34:04.399Z,3.08
2018-08-09T19:38:57.675Z,3.08
2018-08-09T19:43:50.765Z,2.90
2018-08-09T19:48:44.080Z,3.10
2018-08-09T19:53:37.209Z,2.90
2018-08-09T19:58:30.508Z,3.00
2018-08-09T20:03:23.651Z,3.00
2018-08-09T20:08:16.749Z,2.90
2018-08-09T20:13:09.884Z,3.33
2018-08-09T20:18:03.069Z,3.52
2018-08-09T20:22:56.470Z,3.22
2018-08-09T20:27:49.755Z,3.33
2018-08-09T20:32:43.192Z,3.80
2018-08-09T20:37:36.577Z,3.15
2018-08-09T20:42:29.621Z,2.83
2018-08-09T20:47:22.702Z,2.80
2018-08-09T20:52:15.703Z,3.08
2018-08-09T20:57:08.803Z,2.85
2018-08-09T21:02:01.814Z,2.80
2018-08-09T21:06:56.508Z,2.75
2018-08-09T21:11:49.689Z,2.80
2018-08-09T21:16:43.824Z,2.67
2018-08-09T21:21:36.820Z,4.15
2018-08-09T21:26:29.851Z,2.50
2018-08-09T21:31:22.887Z,3.33
2018-08-09T21:36:15.903Z,3.10
2018-08-09T21:41:08.881Z,2.80
2018-08-09T21:46:01.948Z,2.80
2018-08-09T21:50:55.068Z,2.80
2018-08-09T21:55:48.404Z,2.20
2018-08-09T22:00:52.408Z,2.50
2018-08-09T22:05:51.136Z,3.00
2018-08-09T22:11:49.375Z,2.60
2018-08-09T22:16:48.504Z,2.90
2018-08-09T22:21:47.347Z,2.42
2018-08-09T22:26:40.371Z,2.62
2018-08-09T22:31:33.613Z,2.25
2018-08-09T22:36:26.756Z,2.58
2018-08-09T22:41:19.850Z,2.60
2018-08-09T22:46:13.408Z,2.62
2018-08-09T22:51:06.628Z,2.58
2018-08-09T22:55:59.756Z,2.90
2018-08-09T23:00:53.179Z,2.70
2018-08-09T23:05:46.268Z,2.37
2018-08-09T23:10:40.313Z,2.75
2018-08-09T23:15:34.102Z,2.50
2018-08-09T23:20:27.651Z,2.47
2018-08-09T23:25:20.857Z,2.83
2018-08-09T23:30:13.961Z,2.77
2018-08-09T23:35:09.049Z,2.30
2018-08-09T23:40:02.337Z,2.75
2018-08-09T23:44:55.592Z,2.25
2018-08-09T23:49:49.004Z,2.20
2018-08-09T23:54:42.050Z,2.35
2018-08-09T23:59:35.153Z,2.25
